Time;durP1;ratioP1;P1;durP2;ratioP2;P2;SDS_P1;SDS_P2;PMS_P1;PMS_P2;Temp;Humidity;BMP_temperature;BMP_pressure;BME280_temperature;BME280_humidity;BME280_pressure;Samples;Min_cycle;Max_cycle;Signal;HPM_P1;HPM_P2
2022/09/04 00:02:51;;;;;;;8.73;6.60;;;;;;;15.15;72.84;95203.44;5154862;27;20512;-75
2022/09/04 00:05:30;;;;;;;7.75;6.43;;;;;;;15.11;72.96;95215.19;5139346;27;20027;-75
2022/09/04 00:08:10;;;;;;;7.88;5.82;;;;;;;15.11;73.28;95215.19;5136041;27;20039;-75
2022/09/04 00:10:54;;;;;;;7.15;5.95;;;;;;;15.12;72.87;95216.81;5155097;27;20030;-75
2022/09/04 00:13:22;;;;;;;8.85;5.85;;;;;;;15.14;72.72;95214.91;5154774;27;20039;-75
2022/09/04 00:16:18;;;;;;;7.53;6.03;;;;;;;15.10;72.82;95224.03;5119034;27;20027;-75
2022/09/04 00:18:56;;;;;;;7.95;5.80;;;;;;;15.12;72.58;95226.47;5153376;27;20057;-75
2022/09/04 00:21:46;;;;;;;10.00;6.15;;;;;;;15.15;72.39;95224.38;5153304;27;20040;-75
2022/09/04 00:24:17;;;;;;;8.65;6.43;;;;;;;15.14;72.28;95227.16;5153378;27;20038;-75
2022/09/04 00:27:12;;;;;;;7.43;6.13;;;;;;;15.18;72.34;95221.50;5153053;27;20046;-75
2022/09/04 00:29:55;;;;;;;8.18;5.80;;;;;;;15.14;72.51;95225.38;5142147;27;20118;-75
2022/09/04 00:32:37;;;;;;;6.85;5.53;;;;;;;15.13;72.21;95222.91;5152972;27;20034;-75
2022/09/04 00:35:35;;;;;;;8.68;6.05;;;;;;;15.09;72.40;95232.81;5154168;27;20066;-75
2022/09/04 00:38:47;;;;;;;8.68;6.15;;;;;;;15.06;72.45;95227.88;5152973;27;20073;-75
2022/09/04 00:41:32;;;;;;;9.13;6.22;;;;;;;15.04;72.40;95229.81;5146553;27;20038;-75
2022/09/04 00:44:26;;;;;;;7.97;6.13;;;;;;;15.02;72.63;95229.16;5152695;27;20047;-75
2022/09/04 00:47:22;;;;;;;7.60;6.35;;;;;;;14.98;72.54;95231.22;5153951;27;20023;-75
2022/09/04 00:50:19;;;;;;;11.82;5.70;;;;;;;14.96;72.52;95225.31;5152813;27;20079;-75
2022/09/04 00:53:12;;;;;;;6.97;5.40;;;;;;;14.99;72.51;95232.06;5136576;27;20031;-75
2022/09/04 00:55:49;;;;;;;8.43;6.05;;;;;;;14.99;72.19;95216.38;5153812;27;20098;-75
2022/09/04 00:58:33;;;;;;;6.65;5.72;;;;;;;14.98;72.16;95225.16;5136047;27;20087;-75
2022/09/04 01:00:59;;;;;;;8.52;6.25;;;;;;;14.97;71.89;95229.56;5152412;27;20415;-75
2022/09/04 01:03:33;;;;;;;8.80;6.30;;;;;;;15.05;71.43;95223.63;5153786;27;20034;-75
2022/09/04 01:06:14;;;;;;;9.80;7.13;;;;;;;14.84;72.30;95223.84;5152206;27;20496;-75
2022/09/04 01:08:54;;;;;;;9.70;6.68;;;;;;;14.90;72.51;95217.19;5134959;27;20093;-75
2022/09/04 01:11:32;;;;;;;10.70;5.95;;;;;;;14.88;72.24;95222.59;5153573;27;20026;-75
2022/09/04 01:14:09;;;;;;;8.55;6.78;;;;;;;14.85;72.29;95224.66;5152250;27;20115;-75
2022/09/04 01:16:51;;;;;;;7.55;6.20;;;;;;;14.71;72.51;95224.16;5152251;27;20038;-75
2022/09/04 01:19:29;;;;;;;9.55;6.53;;;;;;;14.70;72.09;95222.50;5135355;27;20045;-75
2022/09/04 01:22:12;;;;;;;8.52;5.85;;;;;;;14.61;72.21;95227.78;5152107;27;20117;-75
2022/09/04 01:24:52;;;;;;;7.57;5.35;;;;;;;14.51;72.39;95228.59;5153890;27;20035;-75
2022/09/04 01:27:48;;;;;;;9.37;5.13;;;;;;;14.45;73.02;95228.31;5135810;27;20507;-75
2022/09/04 01:30:16;;;;;;;6.57;5.68;;;;;;;14.35;73.67;95217.03;5134649;27;20041;-75
2022/09/04 01:33:06;;;;;;;7.05;5.28;;;;;;;14.40;73.73;95220.06;5153040;27;20048;-75
2022/09/04 01:35:43;;;;;;;8.15;5.45;;;;;;;14.48;73.38;95214.97;5151818;27;20079;-75
2022/09/04 01:38:14;;;;;;;6.50;5.80;;;;;;;14.36;73.51;95206.47;5134485;27;20035;-75
2022/09/04 01:40:56;;;;;;;8.52;5.43;;;;;;;14.37;73.45;95194.22;5117818;27;20140;-75
2022/09/04 01:43:21;;;;;;;8.07;5.85;;;;;;;14.36;73.50;95203.03;5136068;27;20118;-75
2022/09/04 01:46:06;;;;;;;6.97;5.55;;;;;;;14.34;73.56;95194.50;5134459;27;20465;-75
2022/09/04 01:48:32;;;;;;;6.55;5.25;;;;;;;14.31;73.69;95196.41;5135527;27;20054;-75
2022/09/04 01:51:01;;;;;;;10.68;6.03;;;;;;;14.27;73.63;95187.22;5152801;27;20023;-75
2022/09/04 01:53:26;;;;;;;6.07;5.20;;;;;;;14.35;73.70;95193.53;5117405;27;20080;-75
2022/09/04 01:56:26;;;;;;;6.75;5.40;;;;;;;14.31;73.54;95188.59;5117125;27;20483;-75
2022/09/04 01:58:57;;;;;;;8.02;5.10;;;;;;;14.38;73.28;95185.44;5137124;27;20116;-75
2022/09/04 02:01:37;;;;;;;7.25;5.15;;;;;;;14.38;73.17;95191.47;5134093;27;20069;-75
2022/09/04 02:04:21;;;;;;;6.20;5.13;;;;;;;14.46;72.85;95199.44;5135045;27;20042;-75
2022/09/04 02:07:05;;;;;;;7.25;5.22;;;;;;;14.39;73.03;95202.75;5151170;27;20033;-75
2022/09/04 02:09:43;;;;;;;7.55;5.28;;;;;;;14.34;73.14;95197.13;5151478;27;20039;-75
2022/09/04 02:12:20;;;;;;;7.93;4.90;;;;;;;14.39;73.13;95192.28;5150536;27;20047;-75
2022/09/04 02:15:28;;;;;;;6.50;5.45;;;;;;;14.47;72.77;95189.81;5153034;27;20091;-75
2022/09/04 02:18:10;;;;;;;6.20;5.20;;;;;;;14.38;73.10;95190.66;5128975;27;20532;-75
2022/09/04 02:20:35;;;;;;;7.85;5.97;;;;;;;14.42;73.13;95186.78;5151386;27;20019;-75
2022/09/04 02:23:23;;;;;;;7.68;6.07;;;;;;;14.52;73.45;95192.84;5116762;27;20083;-75
2022/09/04 02:26:03;;;;;;;7.65;6.85;;;;;;;14.52;73.49;95204.13;5152388;27;20054;-75
2022/09/04 02:28:49;;;;;;;9.15;7.03;;;;;;;14.61;73.72;95205.06;5152592;27;20057;-75
2022/09/04 02:31:28;;;;;;;8.27;6.95;;;;;;;14.52;74.01;95196.28;5150466;27;20038;-75
2022/09/04 02:34:12;;;;;;;10.10;7.20;;;;;;;14.49;73.88;95188.69;5152559;27;20038;-75
2022/09/04 02:36:53;;;;;;;8.43;6.80;;;;;;;14.46;73.40;95190.78;5151159;27;20026;-75
2022/09/04 02:40:00;;;;;;;7.38;6.55;;;;;;;14.39;73.18;95187.06;5151117;27;20488;-75
2022/09/04 02:42:44;;;;;;;7.63;6.43;;;;;;;14.36;73.06;95192.56;5131865;27;20039;-75
2022/09/04 02:45:31;;;;;;;7.30;6.22;;;;;;;14.30;72.67;95179.09;5151163;27;20118;-75
2022/09/04 02:48:12;;;;;;;8.98;5.97;;;;;;;14.23;72.60;95191.06;5133466;27;20046;-75
2022/09/04 02:50:44;;;;;;;7.97;5.97;;;;;;;14.18;72.92;95190.69;5135714;27;20033;-75
2022/09/04 02:53:48;;;;;;;10.02;6.80;;;;;;;14.04;73.34;95202.38;5152210;27;20034;-75
2022/09/04 02:56:47;;;;;;;7.13;6.20;;;;;;;13.96;73.64;95202.25;5152435;27;20111;-75
2022/09/04 02:59:25;;;;;;;7.53;6.15;;;;;;;13.96;73.89;95197.03;5136079;27;20109;-75
2022/09/04 03:01:58;;;;;;;7.30;5.75;;;;;;;13.80;74.04;95187.13;5133926;27;20034;-75
2022/09/04 03:04:51;;;;;;;7.55;5.85;;;;;;;13.74;74.16;95211.19;5151088;27;20063;-75
2022/09/04 03:07:22;;;;;;;8.82;6.03;;;;;;;13.81;73.40;95206.22;5150601;27;20041;-75
2022/09/04 03:09:54;;;;;;;9.20;6.40;;;;;;;13.75;73.93;95214.63;5152462;27;20038;-75
2022/09/04 03:12:27;;;;;;;8.00;5.65;;;;;;;13.77;73.73;95223.16;5133358;27;20031;-75
2022/09/04 03:15:17;;;;;;;8.82;6.05;;;;;;;13.73;73.22;95213.91;5133740;27;20478;-75
2022/09/04 03:18:01;;;;;;;7.05;5.43;;;;;;;13.62;73.94;95218.31;5150784;27;20509;-75
2022/09/04 03:20:32;;;;;;;6.50;5.55;;;;;;;13.61;73.55;95219.28;5134493;27;20031;-75
2022/09/04 03:22:59;;;;;;;;;;;;;;;13.64;73.41;95215.56;5119076;27;20042;-75
2022/09/04 03:25:34;;;;;;;6.57;4.90;;;;;;;13.58;73.00;95213.50;5154327;27;20001;-75
2022/09/04 03:28:00;;;;;;;6.95;5.18;;;;;;;13.53;73.18;95219.13;5154051;27;20056;-75
2022/09/04 03:30:25;;;;;;;6.53;4.53;;;;;;;13.45;73.15;95218.97;5119960;27;20227;-75
2022/09/04 03:33:09;;;;;;;6.82;5.75;;;;;;;13.43;73.51;95222.66;5154118;27;20019;-76
2022/09/04 03:36:01;;;;;;;7.97;5.88;;;;;;;13.28;73.67;95210.00;5155414;27;20054;-75
2022/09/04 03:38:32;;;;;;;6.43;5.30;;;;;;;13.29;73.06;95214.28;5138717;27;20035;-75
2022/09/04 03:41:05;;;;;;;7.95;5.50;;;;;;;13.24;73.09;95216.44;5154001;27;20023;-75
2022/09/04 03:43:57;;;;;;;7.45;5.80;;;;;;;13.19;73.38;95223.81;5155337;27;20338;-75
2022/09/04 03:46:30;;;;;;;9.73;5.80;;;;;;;13.09;73.00;95212.53;5153882;27;20050;-75
2022/09/04 03:48:55;;;;;;;8.90;6.20;;;;;;;13.06;73.13;95221.44;5153908;27;20489;-75
2022/09/04 03:51:27;;;;;;;10.35;6.40;;;;;;;13.00;73.13;95227.19;5155223;27;20027;-75
2022/09/04 03:54:05;;;;;;;7.30;6.20;;;;;;;13.02;73.06;95234.91;5155192;27;20121;-75
2022/09/04 03:56:36;;;;;;;6.63;5.65;;;;;;;12.97;73.38;95253.53;5153812;27;20019;-75
2022/09/04 03:59:24;;;;;;;10.13;6.10;;;;;;;12.89;73.61;95251.56;5153642;27;20073;-75
2022/09/04 04:02:10;;;;;;;6.85;5.15;;;;;;;12.87;74.04;95248.28;5138203;27;20046;-75
2022/09/04 04:04:38;;;;;;;7.32;5.80;;;;;;;12.85;73.84;95246.78;5153958;27;20041;-75
2022/09/04 04:07:25;;;;;;;9.30;5.75;;;;;;;12.82;74.05;95258.28;5154663;27;20110;-75
2022/09/04 04:10:14;;;;;;;7.95;4.85;;;;;;;12.69;73.58;95252.44;5155205;27;20042;-75
2022/09/04 04:12:42;;;;;;;7.22;5.57;;;;;;;12.77;73.76;95267.44;5131985;27;20039;-75
2022/09/04 04:15:41;;;;;;;10.07;5.30;;;;;;;12.73;74.23;95275.53;5154611;27;20081;-74
2022/09/04 04:18:12;;;;;;;9.65;6.00;;;;;;;12.73;75.13;95291.16;5153343;27;20489;-75
2022/09/04 04:20:43;;;;;;;9.70;6.00;;;;;;;12.72;74.91;95289.50;5154611;27;20019;-75
2022/09/04 04:23:08;;;;;;;6.78;4.80;;;;;;;12.67;75.53;95296.88;5154511;27;20356;-75
2022/09/04 04:26:05;;;;;;;6.50;5.18;;;;;;;12.70;76.85;95301.84;5154512;27;20022;-75
2022/09/04 04:29:02;;;;;;;9.15;6.30;;;;;;;12.79;77.44;95307.22;5154321;27;20033;-75
2022/09/04 04:32:09;;;;;;;7.15;5.15;;;;;;;12.88;78.06;95309.09;5148399;27;20107;-75
2022/09/04 04:34:42;;;;;;;7.90;6.00;;;;;;;13.01;78.34;95316.69;5153707;27;20050;-75
2022/09/04 04:37:15;;;;;;;7.28;5.07;;;;;;;13.01;78.17;95314.06;5136930;27;20094;-75
2022/09/04 04:40:14;;;;;;;6.35;5.22;;;;;;;13.14;78.14;95319.91;5136422;27;20090;-75
2022/09/04 04:42:54;;;;;;;6.57;5.55;;;;;;;13.26;77.94;95326.75;5150839;27;20053;-75
2022/09/04 04:46:14;;;;;;;8.57;6.00;;;;;;;13.40;77.79;95336.00;5152824;27;20432;-75
2022/09/04 04:49:03;;;;;;;7.53;4.60;;;;;;;13.45;76.44;95312.91;5093118;28;20036;-75
2022/09/04 04:51:45;;;;;;;5.47;4.32;;;;;;;13.52;76.45;95308.00;5153949;27;20034;-75
2022/09/04 04:54:22;;;;;;;6.07;4.57;;;;;;;13.64;75.62;95309.53;5152742;27;20027;-75
2022/09/04 04:57:09;;;;;;;7.35;4.90;;;;;;;14.03;74.58;95307.00;5152544;27;20030;-75
2022/09/04 05:00:05;;;;;;;5.95;4.43;;;;;;;14.59;73.18;95303.72;5119340;27;20031;-75
2022/09/04 05:02:36;;;;;;;5.47;4.18;;;;;;;14.94;70.28;95315.38;5135207;27;20103;-75
2022/09/04 05:05:25;;;;;;;7.17;3.87;;;;;;;15.15;70.11;95317.78;5152395;27;20077;-75
2022/09/04 05:08:05;;;;;;;4.72;3.58;;;;;;;15.34;69.55;95322.94;5152391;27;20307;-75
2022/09/04 05:10:31;;;;;;;6.13;3.72;;;;;;;15.42;69.54;95317.81;5152416;27;20027;-75
2022/09/04 05:13:22;;;;;;;5.13;3.50;;;;;;;15.50;68.78;95311.84;5153431;27;20087;-75
2022/09/04 05:15:59;;;;;;;7.10;4.00;;;;;;;15.58;67.89;95303.28;5128166;27;20527;-75
2022/09/04 05:18:33;;;;;;;5.00;3.92;;;;;;;15.64;67.89;95300.06;5135513;27;20076;-75
2022/09/04 05:21:24;;;;;;;5.18;3.83;;;;;;;15.72;67.97;95302.00;5135516;27;20084;-75
2022/09/04 05:24:03;;;;;;;7.18;4.85;;;;;;;15.71;67.73;95297.72;5122179;27;20432;-75
2022/09/04 05:26:35;;;;;;;7.68;5.13;;;;;;;15.84;68.08;95311.28;5152030;27;20034;-75
2022/09/04 05:29:11;;;;;;;9.30;5.60;;;;;;;15.97;68.59;95309.16;5153370;27;20034;-75
2022/09/04 05:31:36;;;;;;;7.82;5.40;;;;;;;16.16;67.90;95315.19;5134841;27;20449;-75
2022/09/04 05:34:24;;;;;;;5.90;5.22;;;;;;;16.24;68.33;95315.28;5153322;27;20030;-75
2022/09/04 05:37:02;;;;;;;7.85;5.38;;;;;;;16.36;68.49;95311.47;5134525;27;20031;-75
2022/09/04 05:39:28;;;;;;;8.13;7.00;;;;;;;16.48;67.57;95299.78;5151947;27;20027;-75
2022/09/04 05:42:10;;;;;;;9.65;6.63;;;;;;;16.55;67.69;95294.75;5152900;27;20109;-75
2022/09/04 05:44:57;;;;;;;10.05;6.88;;;;;;;16.70;67.51;95302.91;5151904;27;20043;-75
2022/09/04 05:47:47;;;;;;;9.57;8.15;;;;;;;16.81;67.40;95310.56;5136242;27;20027;-75
2022/09/04 05:50:18;;;;;;;9.52;7.88;;;;;;;16.95;67.43;95323.13;5135130;27;20034;-75
2022/09/04 05:53:11;;;;;;;10.30;8.30;;;;;;;17.04;67.50;95312.66;5151512;27;20027;-75
2022/09/04 05:56:01;;;;;;;9.63;7.90;;;;;;;17.18;66.89;95312.09;5152820;27;20030;-76
2022/09/04 05:58:53;;;;;;;15.13;9.07;;;;;;;17.30;66.18;95317.91;5152834;27;20031;-75
2022/09/04 06:01:34;;;;;;;11.25;8.13;;;;;;;17.33;66.47;95310.56;5122541;27;20035;-75
2022/09/04 06:04:18;;;;;;;9.10;8.18;;;;;;;17.34;66.96;95314.81;5151474;27;20136;-75
2022/09/04 06:07:09;;;;;;;11.90;9.27;;;;;;;17.32;66.82;95302.81;5152619;27;20037;-75
2022/09/04 06:09:46;;;;;;;;;;;;;;;17.32;67.87;95295.75;5152923;27;20034;-75
2022/09/04 06:12:49;;;;;;;13.07;8.35;;;;;;;17.33;67.35;95289.56;5152560;27;19918;-75
2022/09/04 06:15:20;;;;;;;9.20;8.20;;;;;;;17.45;67.04;95291.91;5151272;27;20042;-75
2022/09/04 06:17:52;;;;;;;8.95;7.88;;;;;;;17.56;66.62;95288.97;5151183;27;20033;-76
2022/09/04 06:21:08;;;;;;;11.55;8.63;;;;;;;17.69;65.99;95294.63;5152851;27;20030;-75
2022/09/04 06:23:47;;;;;;;10.05;8.52;;;;;;;17.78;65.75;95293.69;5128667;27;20099;-75
2022/09/04 06:26:31;;;;;;;10.35;8.35;;;;;;;17.96;65.03;95288.31;5118172;27;20022;-75
2022/09/04 06:29:17;;;;;;;10.68;8.52;;;;;;;18.09;63.97;95290.47;5152577;27;20042;-75
2022/09/04 06:32:01;;;;;;;10.93;9.68;;;;;;;18.07;64.31;95295.06;5152414;27;20031;-75
2022/09/04 06:34:45;;;;;;;10.30;9.10;;;;;;;18.04;64.41;95292.75;5134321;27;20039;-75
2022/09/04 06:37:37;;;;;;;12.30;9.25;;;;;;;18.11;64.35;95291.16;5151062;27;20027;-75
2022/09/04 06:40:35;;;;;;;12.05;9.48;;;;;;;18.21;64.08;95289.16;5136820;27;20026;-76
2022/09/04 06:43:14;;;;;;;11.60;9.48;;;;;;;18.30;63.91;95293.47;5118240;27;20565;-75
2022/09/04 06:45:57;;;;;;;10.10;9.07;;;;;;;18.31;63.89;95289.84;5151043;27;20031;-75
2022/09/04 06:48:35;;;;;;;12.00;10.13;;;;;;;18.40;63.61;95295.13;5117611;27;20050;-75
2022/09/04 06:51:31;;;;;;;13.38;10.15;;;;;;;18.42;63.69;95295.78;5151257;27;20502;-75
2022/09/04 06:54:35;;;;;;;16.25;10.30;;;;;;;18.42;63.67;95306.31;5152366;27;20031;-75
2022/09/04 06:57:15;;;;;;;12.43;10.05;;;;;;;18.57;62.81;95309.09;5152852;27;20035;-75
2022/09/04 06:59:59;;;;;;;13.63;10.45;;;;;;;18.64;63.21;95304.84;5156076;27;20500;-75
2022/09/04 07:02:52;;;;;;;14.95;10.90;;;;;;;18.65;62.42;95302.03;5156413;27;20063;-75
2022/09/04 07:05:34;;;;;;;15.57;11.38;;;;;;;18.52;62.98;95291.97;5154816;27;20069;-75
2022/09/04 07:08:09;;;;;;;12.98;10.98;;;;;;;18.62;62.86;95293.66;5138111;27;20118;-76
2022/09/04 07:10:39;;;;;;;12.93;10.43;;;;;;;18.76;63.01;95287.75;5155872;27;20030;-75
2022/09/04 07:13:27;;;;;;;14.07;10.87;;;;;;;18.70;62.75;95289.19;5137633;27;20059;-76
2022/09/04 07:16:17;;;;;;;11.27;10.07;;;;;;;18.63;63.32;95288.19;5154597;27;20030;-75
2022/09/04 07:18:49;;;;;;;12.63;10.80;;;;;;;18.70;63.63;95291.84;5154535;27;20035;-75
2022/09/04 07:21:28;;;;;;;11.68;9.57;;;;;;;18.65;63.63;95290.69;5155778;27;20038;-75
2022/09/04 07:24:04;;;;;;;13.52;9.82;;;;;;;18.66;63.01;95297.56;5137850;27;20507;-75
2022/09/04 07:26:35;;;;;;;14.20;10.50;;;;;;;18.68;63.28;95292.97;5154253;27;20031;-75
2022/09/04 07:29:09;;;;;;;10.63;9.45;;;;;;;18.80;63.66;95285.59;5154448;27;20026;-75
2022/09/04 07:31:56;;;;;;;14.45;10.23;;;;;;;18.98;63.00;95287.06;5137302;27;20042;-75
2022/09/04 07:34:34;;;;;;;11.88;9.43;;;;;;;19.04;62.58;95277.66;5137016;27;20026;-75
2022/09/04 07:37:05;;;;;;;12.05;8.77;;;;;;;19.14;62.68;95286.22;5155300;27;20398;-75
2022/09/04 07:40:03;;;;;;;9.68;7.97;;;;;;;19.24;62.09;95285.19;5137521;27;20027;-76
2022/09/04 07:43:02;;;;;;;10.68;9.38;;;;;;;19.26;62.49;95272.69;5149605;27;20043;-75
2022/09/04 07:45:49;;;;;;;10.88;9.13;;;;;;;19.42;62.40;95296.34;5131146;27;20061;-75
2022/09/04 07:48:40;;;;;;;10.30;8.38;;;;;;;19.59;61.34;95303.19;5138326;27;20517;-75
2022/09/04 07:51:10;;;;;;;;;;;;;;;19.62;61.11;95305.47;5155608;27;20480;-75
2022/09/04 07:54:00;;;;;;;9.23;8.15;;;;;;;19.74;60.43;95305.13;5153854;27;19919;-75
2022/09/04 07:56:48;;;;;;;9.80;8.32;;;;;;;19.79;60.57;95306.25;5155031;27;20023;-75
2022/09/04 07:59:17;;;;;;;9.25;7.47;;;;;;;19.88;60.47;95304.41;5153650;27;20149;-75
2022/09/04 08:01:57;;;;;;;9.63;8.00;;;;;;;20.04;59.60;95306.13;5155411;27;20018;-75
2022/09/04 08:04:59;;;;;;;9.75;8.75;;;;;;;20.03;59.92;95315.88;5153754;27;20069;-75
2022/09/04 08:07:33;;;;;;;10.05;8.55;;;;;;;19.96;60.00;95308.81;5153473;27;20110;-76
2022/09/04 08:10:12;;;;;;;11.75;8.60;;;;;;;20.00;62.12;95316.22;5153588;27;20597;-75
2022/09/04 08:13:07;;;;;;;9.82;8.73;;;;;;;20.08;60.97;95324.06;5153371;27;20030;-76
2022/09/04 08:15:54;;;;;;;9.80;8.07;;;;;;;20.26;59.46;95323.00;5154686;27;20629;-76
2022/09/04 08:18:35;;;;;;;8.90;7.22;;;;;;;20.43;58.35;95319.25;5153234;27;20039;-76
2022/09/04 08:21:09;;;;;;;8.55;7.28;;;;;;;20.48;57.83;95311.63;5136514;27;20110;-76
2022/09/04 08:23:47;;;;;;;8.48;7.13;;;;;;;20.46;57.36;95318.06;5153581;27;20129;-76
2022/09/04 08:26:40;;;;;;;9.25;8.13;;;;;;;20.47;59.05;95314.44;5153516;27;20072;-77
2022/09/04 08:29:27;;;;;;;10.20;7.85;;;;;;;20.63;58.49;95324.91;5138790;27;20099;-77
2022/09/04 08:32:03;;;;;;;9.27;8.27;;;;;;;20.73;57.70;95309.66;5154439;27;20065;-76
2022/09/04 08:34:31;;;;;;;13.07;7.68;;;;;;;20.85;57.35;95323.25;5136497;27;20500;-76
2022/09/04 08:37:20;;;;;;;10.40;8.07;;;;;;;20.96;56.85;95317.53;5152923;27;20026;-76
2022/09/04 08:39:55;;;;;;;7.20;6.50;;;;;;;21.13;57.41;95325.31;5135863;27;20393;-74
2022/09/04 08:42:48;;;;;;;7.75;6.95;;;;;;;21.28;56.22;95323.50;5153811;27;20500;-74
2022/09/04 08:45:22;;;;;;;8.95;7.15;;;;;;;21.37;56.22;95314.53;5154206;27;20038;-75
2022/09/04 08:48:00;;;;;;;9.35;7.72;;;;;;;21.38;55.32;95316.16;5154114;27;20030;-79
2022/09/04 08:50:44;;;;;;;8.93;7.88;;;;;;;21.45;55.25;95318.88;5154175;27;20038;-77
2022/09/04 08:53:36;;;;;;;10.13;7.30;;;;;;;21.55;54.86;95308.88;5154279;27;20601;-77
2022/09/04 08:56:07;;;;;;;8.18;6.97;;;;;;;21.64;54.31;95312.22;5154164;27;20065;-77
2022/09/04 08:58:56;;;;;;;8.10;6.47;;;;;;;21.73;54.20;95305.03;5154207;27;20523;-78
2022/09/04 09:01:27;;;;;;;9.98;7.20;;;;;;;21.88;54.43;95300.53;5123401;27;20420;-78
2022/09/04 09:04:02;;;;;;;11.40;7.00;;;;;;;21.99;54.16;95301.91;5154146;27;20038;-77
2022/09/04 09:06:30;;;;;;;9.18;7.32;;;;;;;22.05;53.97;95295.84;5152630;27;20034;-75
2022/09/04 09:09:05;;;;;;;8.00;7.20;;;;;;;22.18;53.16;95292.59;5154008;27;20055;-75
2022/09/04 09:11:33;;;;;;;7.10;6.40;;;;;;;22.24;51.56;95287.34;5153698;27;20019;-77
2022/09/04 09:14:27;;;;;;;8.27;6.28;;;;;;;22.27;50.96;95289.63;5152077;27;20079;-77
2022/09/04 09:17:12;;;;;;;8.68;6.43;;;;;;;22.32;50.93;95293.53;5152149;27;20504;-76
2022/09/04 09:19:38;;;;;;;7.25;6.45;;;;;;;22.36;49.91;95290.31;5152095;27;20030;-76
2022/09/04 09:22:10;;;;;;;7.85;6.07;;;;;;;22.38;49.24;95287.50;5153318;27;20064;-76
2022/09/04 09:25:03;;;;;;;6.35;5.70;;;;;;;22.46;49.49;95285.53;5152283;27;20105;-76
2022/09/04 09:27:37;;;;;;;6.53;5.50;;;;;;;22.61;49.36;95274.88;5152185;27;20023;-77
2022/09/04 09:30:21;;;;;;;6.25;5.65;;;;;;;22.68;48.03;95275.75;5153183;27;20496;-76
2022/09/04 09:33:05;;;;;;;8.23;5.93;;;;;;;22.87;49.04;95271.63;5134717;27;20018;-76
2022/09/04 09:36:00;;;;;;;6.95;5.45;;;;;;;22.94;48.74;95269.84;5151821;27;20113;-77
2022/09/04 09:38:47;;;;;;;6.00;4.47;;;;;;;23.01;46.98;95272.56;5151854;27;20038;-76
2022/09/04 09:41:21;;;;;;;5.72;4.78;;;;;;;23.17;46.96;95263.50;5153359;27;20046;-76
2022/09/04 09:44:26;;;;;;;5.03;4.47;;;;;;;23.32;45.67;95264.22;5152680;27;20079;-76
2022/09/04 09:47:11;;;;;;;6.05;4.72;;;;;;;23.35;44.86;95265.69;5152948;27;20115;-76
2022/09/04 09:49:55;;;;;;;5.35;4.80;;;;;;;23.41;45.45;95267.53;5151825;27;20115;-76
2022/09/04 09:52:29;;;;;;;6.95;5.63;;;;;;;23.34;45.97;95261.38;5152832;27;20027;-76
2022/09/04 09:55:18;;;;;;;6.18;5.43;;;;;;;23.48;46.01;95259.59;5153379;27;20030;-77
2022/09/04 09:58:05;;;;;;;5.68;5.15;;;;;;;23.55;45.37;95261.28;5151522;27;20045;-76
2022/09/04 10:00:58;;;;;;;6.88;4.80;;;;;;;23.63;45.38;95253.16;5152906;27;20608;-76
2022/09/04 10:03:27;;;;;;;6.50;5.00;;;;;;;23.74;45.60;95245.69;5152885;27;20031;-77
2022/09/04 10:06:01;;;;;;;6.95;5.28;;;;;;;23.72;45.31;95245.06;5152678;27;20034;-76
2022/09/04 10:08:39;;;;;;;5.68;4.93;;;;;;;23.83;44.76;95244.50;5151615;27;20073;-77
2022/09/04 10:11:04;;;;;;;5.70;5.07;;;;;;;23.95;44.63;95247.38;5152550;27;20047;-77
2022/09/04 10:14:04;;;;;;;5.70;5.03;;;;;;;23.99;44.50;95256.59;5152853;27;20037;-77
2022/09/04 10:16:51;;;;;;;4.97;4.47;;;;;;;24.04;44.33;95246.19;5152633;27;20048;-77
2022/09/04 10:19:35;;;;;;;5.82;5.03;;;;;;;24.05;44.56;95237.22;5151526;27;20096;-77
2022/09/04 10:22:38;;;;;;;5.47;4.97;;;;;;;24.09;44.66;95233.94;5151220;27;20474;-77
2022/09/04 10:25:29;;;;;;;5.78;4.30;;;;;;;24.17;45.17;95226.84;5151278;27;20074;-77
2022/09/04 10:28:07;;;;;;;5.63;5.13;;;;;;;24.24;44.96;95225.84;5151203;27;20343;-77
2022/09/04 10:30:54;;;;;;;6.13;4.90;;;;;;;24.36;44.65;95223.41;5151221;27;20027;-77
2022/09/04 10:33:30;;;;;;;7.20;4.47;;;;;;;24.41;44.83;95215.66;5154219;27;20067;-77
2022/09/04 10:36:36;;;;;;;5.63;4.72;;;;;;;24.48;43.99;95215.66;5138510;27;20023;-77
2022/09/04 10:42:29;;;;;;;5.43;4.80;;;;;;;24.56;44.56;95218.13;5155674;27;20026;-76
2022/09/04 10:44:59;;;;;;;6.40;4.60;;;;;;;24.66;43.97;95218.53;5150399;27;20054;-76
2022/09/04 10:47:25;;;;;;;4.95;4.20;;;;;;;24.70;43.83;95224.25;5138068;27;20065;-76
2022/09/04 10:50:24;;;;;;;6.82;5.10;;;;;;;24.66;43.84;95221.19;5154972;27;20034;-76
2022/09/04 10:52:50;;;;;;;5.43;4.20;;;;;;;24.69;44.43;95212.00;5139239;27;20049;-76
2022/09/04 10:55:42;;;;;;;6.40;4.18;;;;;;;24.69;42.55;95210.16;5154981;27;20027;-76
2022/09/04 10:58:29;;;;;;;4.97;4.07;;;;;;;24.74;43.36;95210.38;5156269;27;20070;-76
2022/09/04 11:01:26;;;;;;;5.35;4.07;;;;;;;24.84;43.08;95209.94;5156182;27;20031;-76
2022/09/04 11:04:21;;;;;;;5.75;4.20;;;;;;;24.83;43.19;95199.53;5154756;27;20035;-76
2022/09/04 11:07:09;;;;;;;5.28;4.40;;;;;;;24.95;42.90;95200.53;5155989;27;20027;-76
2022/09/04 11:09:40;;;;;;;4.68;4.25;;;;;;;25.03;42.74;95187.03;5154882;27;20560;-76
2022/09/04 11:12:06;;;;;;;5.40;4.55;;;;;;;25.08;41.90;95181.91;5155899;27;20091;-76
2022/09/04 11:14:56;;;;;;;5.85;4.10;;;;;;;25.13;41.70;95187.41;5156347;27;20030;-76
2022/09/04 11:17:40;;;;;;;4.93;4.43;;;;;;;25.14;41.92;95180.25;5155315;27;20463;-76
2022/09/04 11:20:27;;;;;;;5.80;4.65;;;;;;;25.24;41.89;95188.66;5155835;27;20030;-76
2022/09/04 11:23:10;;;;;;;10.40;4.40;;;;;;;25.26;42.21;95191.91;5155647;27;20034;-76
2022/09/04 11:26:10;;;;;;;4.80;3.97;;;;;;;25.28;42.24;95181.06;5154961;27;20027;-76
2022/09/04 11:28:45;;;;;;;5.47;4.07;;;;;;;25.32;40.62;95175.09;5155820;27;20038;-76
2022/09/04 11:31:38;;;;;;;5.07;4.40;;;;;;;25.44;41.14;95174.47;5155599;27;20027;-76
2022/09/04 11:34:37;;;;;;;6.20;4.22;;;;;;;25.53;41.16;95170.53;5155781;27;20046;-76
2022/09/04 11:37:21;;;;;;;5.00;4.13;;;;;;;25.60;40.68;95173.97;5155420;27;20031;-76
2022/09/04 11:39:46;;;;;;;4.70;3.75;;;;;;;25.70;39.67;95171.69;5155391;27;20062;-76
2022/09/04 11:42:49;;;;;;;5.03;3.85;;;;;;;25.76;39.60;95162.84;5154160;27;20050;-76
2022/09/04 11:45:20;;;;;;;4.88;3.97;;;;;;;25.81;40.30;95168.34;5139985;27;20065;-76
2022/09/04 11:48:04;;;;;;;5.40;4.00;;;;;;;25.83;39.98;95155.69;5155292;27;20448;-76
2022/09/04 11:50:55;;;;;;;6.13;4.00;;;;;;;25.88;39.55;95167.53;5155274;27;20035;-76
2022/09/04 11:54:00;;;;;;;4.22;3.47;;;;;;;25.83;38.50;95166.34;5137592;27;20035;-76
2022/09/04 11:56:32;;;;;;;4.57;3.70;;;;;;;25.82;38.63;95145.22;5136737;27;20046;-76
2022/09/04 11:59:24;;;;;;;5.80;3.70;;;;;;;25.85;39.15;95145.66;5155398;27;20098;-76
2022/09/04 12:02:21;;;;;;;4.55;3.78;;;;;;;25.82;38.65;95148.69;5154147;27;20018;-76
2022/09/04 12:05:02;;;;;;;6.35;3.90;;;;;;;25.82;38.53;95142.56;5155499;27;20045;-76
2022/09/04 12:07:45;;;;;;;4.50;3.92;;;;;;;25.89;39.70;95145.22;5154878;27;20453;-76
2022/09/04 12:10:26;;;;;;;5.28;3.90;;;;;;;25.88;39.57;95143.56;5154922;27;20034;-76
2022/09/04 12:13:12;;;;;;;4.10;3.60;;;;;;;25.88;39.13;95135.59;5153642;27;20022;-77
2022/09/04 12:15:41;;;;;;;5.45;3.80;;;;;;;25.91;40.28;95135.16;5154803;27;20156;-76
2022/09/04 12:18:40;;;;;;;4.53;4.05;;;;;;;25.94;39.64;95134.75;5154859;27;20126;-76
2022/09/04 12:21:22;;;;;;;6.75;3.83;;;;;;;25.90;38.37;95126.38;5123076;27;20404;-76
2022/09/04 12:24:24;;;;;;;4.78;4.05;;;;;;;25.69;38.78;95127.50;5118448;27;20028;-76
2022/09/04 12:27:02;;;;;;;5.32;4.05;;;;;;;25.81;39.47;95132.94;5122473;27;20027;-77
2022/09/04 12:30:05;;;;;;;4.68;4.00;;;;;;;25.79;38.49;95127.84;5121720;27;20035;-77
2022/09/04 12:32:57;;;;;;;5.63;3.85;;;;;;;25.86;39.41;95133.16;5133527;27;20580;-77
2022/09/04 12:35:38;;;;;;;4.97;4.20;;;;;;;26.01;39.15;95128.34;5132609;27;20164;-77
2022/09/04 12:38:23;;;;;;;6.35;4.50;;;;;;;26.10;38.77;95131.56;5121146;27;20059;-77
2022/09/04 12:41:16;;;;;;;4.45;3.80;;;;;;;26.03;37.67;95134.28;5124293;27;20079;-77
2022/09/04 12:43:54;;;;;;;5.28;4.10;;;;;;;25.88;38.12;95136.41;5129558;27;20039;-77
2022/09/04 12:46:47;;;;;;;5.20;4.28;;;;;;;25.75;39.11;95136.47;5126808;27;20060;-77
2022/09/04 12:49:32;;;;;;;4.15;3.72;;;;;;;25.60;38.39;95124.28;5124918;27;20020;-77